Página principal
METAR-TAF:

METAR-TAF

Aeroportos :

Gran Canária, Espanha

Aeroporto de Gran Canária

latitude: 27-56N, longitude: 015-23W, altura: 23 m

Observação actual do tempo

O boletim foi feito há 11 minutos, às 16:00 UTC
Vento 23 kt de nor-nordeste
Temperatura 22°C
Humidade 57%
Pressão 1016 hPa
Visibilidade 10 km ou mais
Poucas nuvensa uma altura de 3500 ft
Nuvens dispersasa uma altura de 5500 ft

METAR: GCLP 251600Z 03023KT 9999 FEW035 SCT055 22/13 Q1016 NOSIG

Hora: 17:11 (16:11 UTC)

Previsão

O boletim foi feito há 2 horas e 11 minutos, às 14:00 UTC
Previsão válida de 25 às 15 UTC a 26 às 15 UTC
Vento 18 kt de norte
Visibilidade 10 km ou mais
Nuvens dispersasa uma altura de 4000 ft
Probabilidade 30% :
Temporariamente
de 25 às 15 UTC a 25 às 19 UTC
Vento 20 kt de norte com rajadas de 30 kt

TAF: GCLP 251400Z 2515/2615 01018KT 9999 SCT040 TX23/2614Z TN16/2605Z PROB30 TEMPO 2515/2519 01020G30KT

Observações e previsões do tempo de mais de 4000 aeroportos (mensagens METAR e TAF).

As estações disponíveis são os pontos amarelos e vermelhos sobre o mapa.

Mova o rato sobre o mapa para ver o nome da estação.

Depois clique no ponto para visualizar as observações e previsões meteorológicas.

Para alterar o mapa : clique nos botões verdes com uma cruz preta para aumentar o zoom; no botão verde com uma pitada de zoom; ou nas setas verdes para mapas adjacentes.


METAR-TAF: